Time;durP1;ratioP1;P1;durP2;ratioP2;P2;SDS_P1;SDS_P2;PMS_P1;PMS_P2;Temp;Humidity;BMP_temperature;BMP_pressure;BME280_temperature;BME280_humidity;BME280_pressure;Samples;Min_cycle;Max_cycle;Signal;HPM_P1;HPM_P2
2023/09/25 00:01:03;;;;;;;1.60;0.70;;;10.60;99.90;;;;;;5065181;28;20442;-84
2023/09/25 00:03:30;;;;;;;1.33;0.70;;;10.60;99.90;;;;;;5067320;28;20455;-84
2023/09/25 00:05:57;;;;;;;0.80;0.70;;;10.60;99.90;;;;;;5056439;28;20470;-84
2023/09/25 00:08:24;;;;;;;7.23;1.37;;;10.70;99.90;;;;;;5068339;28;20530;-83
2023/09/25 00:10:52;;;;;;;1.73;0.83;;;10.80;99.90;;;;;;5067098;28;20451;-83
2023/09/25 00:13:19;;;;;;;1.27;0.70;;;10.70;99.90;;;;;;5060859;28;20498;-85
2023/09/25 00:15:47;;;;;;;0.87;0.83;;;10.70;99.90;;;;;;5068166;28;20453;-85
2023/09/25 00:18:15;;;;;;;1.93;0.60;;;10.60;99.90;;;;;;5064822;28;20505;-84
2023/09/25 00:20:42;;;;;;;0.90;0.67;;;10.60;99.90;;;;;;5066406;28;20455;-85
2023/09/25 00:23:09;;;;;;;1.77;1.27;;;10.50;99.90;;;;;;5065791;28;20446;-84
2023/09/25 00:25:36;;;;;;;0.80;0.80;;;10.40;99.90;;;;;;5057604;28;20451;-83
2023/09/25 00:28:03;;;;;;;2.60;1.33;;;10.30;99.90;;;;;;5055290;28;20468;-85
2023/09/25 00:30:30;;;;;;;1.00;0.83;;;10.30;99.90;;;;;;5054782;28;20565;-84
2023/09/25 00:32:59;;;;;;;0.97;0.87;;;10.20;99.90;;;;;;5059997;28;20520;-84
2023/09/25 00:35:26;;;;;;;1.13;0.90;;;10.20;99.90;;;;;;5067879;28;20462;-84
2023/09/25 00:37:53;;;;;;;0.80;0.80;;;10.20;99.90;;;;;;5071390;28;20460;-84
2023/09/25 00:40:24;;;;;;;1.03;0.80;;;10.10;99.90;;;;;;5065924;28;20995;-84
2023/09/25 00:42:53;;;;;;;1.43;1.00;;;10.10;99.90;;;;;;5070147;28;20516;-83
2023/09/25 00:45:20;;;;;;;3.00;1.00;;;10.20;99.90;;;;;;5064282;28;20973;-85
2023/09/25 00:47:50;;;;;;;1.53;0.90;;;10.30;99.90;;;;;;5069543;28;20445;-84
2023/09/25 00:50:19;;;;;;;8.63;1.00;;;10.30;99.90;;;;;;5067528;28;20444;-83
2023/09/25 00:52:46;;;;;;;1.50;0.90;;;10.30;99.90;;;;;;5065303;28;21056;-84
2023/09/25 00:55:15;;;;;;;2.50;0.90;;;10.40;99.90;;;;;;5060262;28;20930;-84
2023/09/25 00:57:43;;;;;;;0.87;0.87;;;10.40;99.90;;;;;;5057640;28;20471;-85
2023/09/25 01:00:11;;;;;;;1.20;1.10;;;10.50;99.90;;;;;;5060036;28;20441;-84
2023/09/25 01:02:39;;;;;;;4.20;2.23;;;10.50;99.90;;;;;;5068833;28;20449;-84
2023/09/25 01:05:08;;;;;;;2.00;1.73;;;10.50;99.90;;;;;;5062469;28;20458;-84
2023/09/25 01:07:37;;;;;;;3.27;1.07;;;10.50;99.90;;;;;;5069647;28;20525;-84
2023/09/25 01:10:06;;;;;;;0.90;0.80;;;10.40;99.90;;;;;;5068832;28;21060;-83
2023/09/25 01:12:34;;;;;;;0.93;0.70;;;10.40;99.90;;;;;;5063832;28;20449;-83
2023/09/25 01:15:02;;;;;;;0.80;0.80;;;10.30;99.90;;;;;;5060329;28;20871;-84
2023/09/25 01:17:29;;;;;;;1.20;1.10;;;10.20;99.90;;;;;;5064382;28;20470;-86
2023/09/25 01:19:56;;;;;;;1.37;0.80;;;10.30;99.90;;;;;;5065517;28;20805;-87
2023/09/25 01:22:25;;;;;;;0.80;0.70;;;10.30;99.90;;;;;;5065217;28;20485;-84
2023/09/25 01:24:52;;;;;;;1.37;1.27;;;10.20;99.90;;;;;;5055440;28;20472;-84
2023/09/25 01:27:19;;;;;;;0.87;0.80;;;10.20;99.90;;;;;;5056631;28;20500;-84
2023/09/25 01:29:46;;;;;;;3.30;0.83;;;10.10;99.90;;;;;;5055940;28;20954;-83
2023/09/25 01:32:13;;;;;;;0.73;0.73;;;10.10;99.90;;;;;;5064990;28;20526;-83
2023/09/25 01:34:40;;;;;;;1.23;0.80;;;10.00;99.90;;;;;;5059887;28;20487;-86
2023/09/25 01:37:10;;;;;;;0.80;0.80;;;10.00;99.90;;;;;;5059522;28;20455;-84
2023/09/25 01:39:38;;;;;;;0.90;0.90;;;10.00;99.90;;;;;;5058327;28;20471;-84
2023/09/25 01:42:05;;;;;;;1.17;0.90;;;9.90;99.90;;;;;;5064544;28;20440;-84
2023/09/25 01:44:32;;;;;;;1.17;1.00;;;10.00;99.90;;;;;;5063060;28;20464;-85
2023/09/25 01:47:00;;;;;;;1.63;1.00;;;9.90;99.90;;;;;;5063063;28;20470;-83
2023/09/25 01:49:29;;;;;;;1.00;0.87;;;9.90;99.90;;;;;;5066583;28;20447;-84
2023/09/25 01:51:56;;;;;;;1.00;0.90;;;9.90;99.90;;;;;;5062963;28;20490;-84
2023/09/25 01:54:23;;;;;;;2.70;2.20;;;10.00;99.90;;;;;;5059539;28;20554;-84
2023/09/25 01:56:51;;;;;;;0.80;0.80;;;10.10;99.90;;;;;;5063137;28;20480;-84
2023/09/25 01:59:18;;;;;;;1.30;1.20;;;10.20;99.90;;;;;;5062547;28;20454;-84
2023/09/25 02:01:45;;;;;;;1.53;1.37;;;10.40;99.90;;;;;;5064802;28;20540;-86
2023/09/25 02:04:12;;;;;;;3.13;1.03;;;10.40;99.90;;;;;;5068972;28;20475;-84
2023/09/25 02:06:39;;;;;;;1.37;1.00;;;10.60;99.90;;;;;;5067298;28;21054;-84
2023/09/25 02:09:06;;;;;;;2.30;1.47;;;10.60;99.90;;;;;;5089035;28;20881;-86
2023/09/25 02:11:33;;;;;;;0.80;0.77;;;10.60;99.90;;;;;;5081073;28;20468;-84
2023/09/25 02:14:01;;;;;;;2.60;0.80;;;10.60;99.90;;;;;;5080369;28;20510;-84
2023/09/25 02:16:29;;;;;;;1.03;0.83;;;10.60;99.90;;;;;;5063512;28;20865;-84
2023/09/25 02:18:56;;;;;;;0.70;0.70;;;10.60;99.90;;;;;;5066051;28;20858;-86
2023/09/25 02:21:23;;;;;;;3.63;1.03;;;10.70;99.90;;;;;;5067545;28;20448;-86
2023/09/25 02:23:51;;;;;;;1.73;1.23;;;10.60;99.90;;;;;;5066221;28;20481;-84
2023/09/25 02:26:18;;;;;;;1.40;1.20;;;10.60;99.90;;;;;;5067073;28;20497;-84
2023/09/25 02:28:44;;;;;;;2.30;1.27;;;10.60;99.90;;;;;;5056888;28;20627;-85
2023/09/25 02:31:13;;;;;;;1.00;1.00;;;10.70;99.90;;;;;;5065218;28;20854;-84
2023/09/25 02:33:40;;;;;;;1.13;0.70;;;10.70;99.90;;;;;;5060616;28;20913;-85
2023/09/25 02:36:09;;;;;;;1.10;1.00;;;10.70;99.90;;;;;;5060074;28;20480;-86
2023/09/25 02:38:36;;;;;;;1.73;1.47;;;10.70;99.90;;;;;;5060937;28;20458;-84
2023/09/25 02:41:03;;;;;;;2.60;1.30;;;10.70;99.90;;;;;;5065358;28;20453;-84
2023/09/25 02:43:30;;;;;;;1.17;0.70;;;10.80;99.90;;;;;;5072142;28;20474;-84
2023/09/25 02:45:57;;;;;;;1.43;1.33;;;10.90;99.90;;;;;;5066389;28;20478;-86
2023/09/25 02:48:25;;;;;;;1.60;1.43;;;10.90;99.90;;;;;;5065956;28;20447;-84
2023/09/25 02:50:52;;;;;;;1.33;0.97;;;10.80;99.90;;;;;;5065563;28;20477;-86
2023/09/25 02:53:19;;;;;;;1.03;0.90;;;10.70;99.90;;;;;;5063987;28;20465;-84
2023/09/25 02:55:50;;;;;;;1.30;1.03;;;10.80;99.90;;;;;;5062677;28;20455;-85
2023/09/25 02:58:17;;;;;;;1.53;1.17;;;10.80;99.90;;;;;;5052940;28;21022;-85
2023/09/25 03:00:44;;;;;;;1.87;0.83;;;10.80;99.90;;;;;;5052122;28;20441;-84
2023/09/25 03:03:14;;;;;;;1.20;1.10;;;10.80;99.90;;;;;;5069542;28;20449;-84
2023/09/25 03:05:42;;;;;;;1.40;1.00;;;10.60;99.90;;;;;;5068358;28;20463;-86
2023/09/25 03:08:09;;;;;;;1.10;1.00;;;10.60;99.90;;;;;;5068710;28;20848;-86
2023/09/25 03:10:36;;;;;;;0.80;0.70;;;10.60;99.90;;;;;;5065732;28;21239;-84
2023/09/25 03:13:03;;;;;;;1.20;1.10;;;10.50;99.90;;;;;;5067895;28;20500;-85
2023/09/25 03:15:30;;;;;;;2.90;0.80;;;10.40;99.90;;;;;;5063881;28;20493;-84
2023/09/25 03:17:57;;;;;;;4.00;1.17;;;10.40;99.90;;;;;;5059928;28;20455;-85
2023/09/25 03:20:24;;;;;;;1.63;1.17;;;10.50;99.90;;;;;;5068647;28;20989;-84
2023/09/25 03:22:54;;;;;;;0.80;0.80;;;10.50;99.90;;;;;;5067250;28;20462;-84
2023/09/25 03:25:21;;;;;;;0.83;0.70;;;10.50;99.90;;;;;;5053608;28;20485;-85
2023/09/25 03:27:50;;;;;;;1.47;0.87;;;10.50;99.90;;;;;;5065623;28;20467;-84
2023/09/25 03:30:17;;;;;;;3.57;0.90;;;10.60;99.90;;;;;;5063521;28;20563;-85
2023/09/25 03:32:44;;;;;;;0.93;0.93;;;10.50;99.90;;;;;;5064916;28;20559;-84
2023/09/25 03:35:11;;;;;;;1.10;0.90;;;10.60;99.90;;;;;;5066520;28;20492;-83
2023/09/25 03:37:38;;;;;;;3.63;1.23;;;10.70;99.90;;;;;;5064840;28;20529;-83
2023/09/25 03:40:09;;;;;;;1.13;1.00;;;10.60;99.90;;;;;;5066350;28;21044;-86
2023/09/25 03:42:36;;;;;;;1.83;1.10;;;10.70;99.90;;;;;;5062514;28;20462;-84
2023/09/25 03:45:03;;;;;;;0.90;0.67;;;10.60;99.90;;;;;;5069239;28;20936;-85
2023/09/25 03:47:30;;;;;;;1.40;1.30;;;10.50;99.90;;;;;;5067450;28;20475;-84
2023/09/25 03:49:57;;;;;;;1.30;1.20;;;10.30;99.90;;;;;;5064445;28;20471;-85
2023/09/25 03:52:24;;;;;;;0.60;0.50;;;10.30;99.90;;;;;;5060568;28;20463;-84
2023/09/25 03:54:51;;;;;;;0.97;0.87;;;10.20;99.90;;;;;;5066910;28;21202;-86
2023/09/25 03:57:20;;;;;;;0.73;0.73;;;10.20;99.90;;;;;;5055297;28;20451;-86
2023/09/25 03:59:47;;;;;;;1.23;0.80;;;10.30;99.90;;;;;;5059077;28;21063;-86
2023/09/25 04:02:14;;;;;;;1.07;0.93;;;10.30;99.90;;;;;;5063952;28;20454;-86
2023/09/25 04:04:41;;;;;;;0.77;0.77;;;10.40;99.90;;;;;;5065771;28;20539;-86
2023/09/25 04:07:08;;;;;;;1.07;0.90;;;10.50;99.90;;;;;;5069323;28;20447;-84
2023/09/25 04:09:35;;;;;;;1.00;0.80;;;10.50;99.90;;;;;;5061333;28;20477;-86
2023/09/25 04:12:02;;;;;;;2.40;2.30;;;10.60;99.90;;;;;;5059296;28;20952;-86
2023/09/25 04:14:35;;;;;;;0.70;0.70;;;10.70;99.90;;;;;;5064125;28;20490;-85
2023/09/25 04:17:02;;;;;;;1.40;1.30;;;10.70;99.90;;;;;;5068520;28;20873;-86
2023/09/25 04:19:30;;;;;;;1.40;1.00;;;10.70;99.90;;;;;;5066168;28;20470;-86
2023/09/25 04:21:59;;;;;;;1.20;0.80;;;10.80;99.90;;;;;;5060753;28;20910;-86
2023/09/25 04:24:26;;;;;;;2.03;1.33;;;10.80;99.90;;;;;;5066369;28;20526;-86
2023/09/25 04:26:53;;;;;;;0.97;0.90;;;10.80;99.90;;;;;;5061965;28;20496;-89
2023/09/25 04:29:21;;;;;;;2.43;1.07;;;10.80;99.90;;;;;;5060501;28;20467;-86
2023/09/25 04:31:50;;;;;;;1.70;0.80;;;11.00;99.90;;;;;;5063707;28;20483;-87
2023/09/25 04:34:17;;;;;;;1.27;0.70;;;11.10;99.90;;;;;;5060205;28;20790;-86
2023/09/25 04:36:45;;;;;;;1.63;0.97;;;11.10;99.90;;;;;;5067110;28;20484;-86
2023/09/25 04:39:16;;;;;;;0.87;0.87;;;11.00;99.90;;;;;;5070831;28;20503;-86
2023/09/25 04:41:43;;;;;;;1.10;1.00;;;11.10;99.90;;;;;;5066546;28;20987;-86
2023/09/25 04:44:10;;;;;;;1.00;1.00;;;11.10;99.90;;;;;;5078419;28;20489;-86
2023/09/25 04:46:38;;;;;;;4.50;1.47;;;11.10;99.90;;;;;;5077044;28;20510;-87
2023/09/25 04:49:07;;;;;;;0.90;0.83;;;11.20;99.90;;;;;;5065001;28;20460;-85
2023/09/25 04:51:34;;;;;;;0.80;0.80;;;11.20;99.90;;;;;;5066923;28;20839;-86
2023/09/25 04:54:01;;;;;;;1.10;1.10;;;11.20;99.90;;;;;;5061106;28;20483;-84
2023/09/25 04:56:29;;;;;;;1.43;1.00;;;11.10;99.90;;;;;;5051284;28;20449;-83
2023/09/25 04:58:57;;;;;;;0.87;0.80;;;11.10;99.90;;;;;;5052369;28;20449;-82
2023/09/25 05:01:24;;;;;;;1.53;0.90;;;11.20;99.90;;;;;;5066303;28;20468;-82
2023/09/25 05:03:51;;;;;;;1.10;1.00;;;11.20;99.90;;;;;;5066998;28;21194;-82
2023/09/25 05:06:20;;;;;;;1.07;1.00;;;11.20;99.90;;;;;;5063506;28;20463;-81
2023/09/25 05:08:48;;;;;;;0.80;0.70;;;11.20;99.90;;;;;;5059560;28;20540;-81
2023/09/25 05:11:15;;;;;;;1.40;1.27;;;11.20;99.90;;;;;;5064524;28;20575;-82
2023/09/25 05:13:42;;;;;;;1.67;1.57;;;11.20;99.90;;;;;;5069709;28;20961;-82
2023/09/25 05:16:09;;;;;;;1.10;0.73;;;11.20;99.90;;;;;;5056981;28;20538;-81
2023/09/25 05:18:36;;;;;;;1.47;0.80;;;11.10;99.90;;;;;;5064044;28;20505;-81
2023/09/25 05:21:03;;;;;;;1.77;1.13;;;11.20;99.90;;;;;;5063634;28;20469;-81
2023/09/25 05:23:33;;;;;;;1.30;1.20;;;11.10;99.90;;;;;;5055062;28;20466;-82
2023/09/25 05:26:00;;;;;;;1.50;1.00;;;11.10;99.90;;;;;;5062125;28;20566;-82
2023/09/25 05:28:27;;;;;;;1.50;1.20;;;11.10;99.90;;;;;;5065187;28;20461;-82
2023/09/25 05:30:56;;;;;;;3.03;1.00;;;11.20;99.90;;;;;;5065666;28;20518;-82
2023/09/25 05:33:23;;;;;;;1.10;1.00;;;11.30;99.90;;;;;;5060106;28;20458;-82
2023/09/25 05:35:50;;;;;;;1.70;1.33;;;11.40;99.90;;;;;;5064060;28;20563;-82
2023/09/25 05:38:17;;;;;;;1.13;0.80;;;11.30;99.90;;;;;;5059962;28;20439;-83
2023/09/25 05:40:46;;;;;;;1.83;0.80;;;11.40;99.90;;;;;;5048810;28;20516;-83
2023/09/25 05:43:13;;;;;;;0.90;0.80;;;11.50;99.90;;;;;;5053649;28;20473;-82
2023/09/25 05:45:40;;;;;;;1.70;1.07;;;11.60;99.90;;;;;;5060964;28;20497;-82
2023/09/25 05:48:09;;;;;;;1.20;1.10;;;11.60;99.90;;;;;;5060060;28;20455;-82
2023/09/25 05:50:36;;;;;;;1.50;1.10;;;11.80;99.90;;;;;;5058854;28;20477;-82
2023/09/25 05:53:04;;;;;;;1.40;1.30;;;11.80;99.90;;;;;;5063763;28;20455;-82
2023/09/25 05:55:31;;;;;;;1.33;1.10;;;11.80;99.90;;;;;;5065678;28;21382;-82
2023/09/25 05:57:59;;;;;;;2.13;1.37;;;11.90;99.90;;;;;;5064374;28;21055;-82
2023/09/25 06:00:26;;;;;;;1.20;1.10;;;11.80;99.90;;;;;;5064723;28;20524;-82
2023/09/25 06:02:53;;;;;;;1.20;1.10;;;11.90;99.90;;;;;;5063482;28;20471;-82
2023/09/25 06:05:20;;;;;;;4.50;1.53;;;11.90;99.90;;;;;;5056326;28;20473;-82
2023/09/25 06:07:47;;;;;;;1.37;1.17;;;12.00;99.90;;;;;;5063477;28;20578;-81
2023/09/25 06:10:17;;;;;;;1.67;1.50;;;12.10;99.90;;;;;;5063082;28;20470;-82
2023/09/25 06:12:44;;;;;;;1.73;1.23;;;12.30;99.90;;;;;;5065427;28;20543;-82
2023/09/25 06:15:13;;;;;;;0.80;0.80;;;12.30;99.90;;;;;;5057188;28;20544;-81
2023/09/25 06:17:40;;;;;;;1.50;1.37;;;12.40;99.90;;;;;;5059777;28;20563;-82
2023/09/25 06:20:14;;;;;;;4.10;1.30;;;12.40;99.90;;;;;;5058396;28;20509;-81
2023/09/25 06:22:43;;;;;;;1.10;1.00;;;12.60;99.90;;;;;;5057939;28;20465;-81
2023/09/25 06:25:11;;;;;;;3.30;1.07;;;12.60;99.90;;;;;;5061717;28;20494;-81
2023/09/25 06:27:44;;;;;;;1.67;1.10;;;12.70;99.90;;;;;;5060396;28;20513;-82
2023/09/25 06:30:13;;;;;;;3.67;1.80;;;12.80;99.90;;;;;;5061071;28;20494;-81
2023/09/25 06:32:40;;;;;;;3.63;0.90;;;12.60;99.90;;;;;;5060462;28;20460;-81
2023/09/25 06:35:08;;;;;;;2.57;0.90;;;12.60;99.90;;;;;;5058231;28;20479;-85
2023/09/25 06:37:35;;;;;;;1.30;1.10;;;12.70;99.90;;;;;;5062154;28;20534;-84
2023/09/25 06:40:03;;;;;;;1.70;0.83;;;12.70;99.90;;;;;;5061244;28;20938;-89
2023/09/25 06:42:31;;;;;;;2.00;1.27;;;12.60;99.90;;;;;;5069177;28;20497;-86
2023/09/25 06:44:59;;;;;;;1.67;1.10;;;12.80;99.90;;;;;;5066550;28;20989;-86
2023/09/25 06:47:28;;;;;;;2.03;1.60;;;12.80;99.90;;;;;;5073975;28;20459;-82
2023/09/25 06:49:55;;;;;;;4.73;1.07;;;12.80;99.90;;;;;;5071758;28;20448;-81
2023/09/25 06:52:22;;;;;;;1.27;1.17;;;13.00;99.90;;;;;;5065229;28;20483;-82
2023/09/25 06:54:51;;;;;;;1.20;1.10;;;13.00;99.90;;;;;;5059862;28;21011;-82
2023/09/25 06:57:17;;;;;;;3.70;1.50;;;13.20;99.90;;;;;;5062375;28;20455;-81
2023/09/25 06:59:44;;;;;;;2.43;1.17;;;13.30;99.90;;;;;;5056899;28;20464;-81
2023/09/25 07:02:11;;;;;;;1.40;1.30;;;13.30;99.90;;;;;;5060686;28;20508;-82
2023/09/25 07:04:40;;;;;;;4.33;1.10;;;13.30;99.90;;;;;;5061810;28;20506;-80
2023/09/25 07:07:07;;;;;;;3.23;1.60;;;13.20;99.90;;;;;;5061738;28;20562;-81
2023/09/25 07:09:34;;;;;;;1.90;1.13;;;13.10;99.90;;;;;;5061524;28;20509;-86
2023/09/25 07:12:01;;;;;;;7.60;1.60;;;13.30;99.90;;;;;;5060359;28;20542;-86
2023/09/25 07:14:28;;;;;;;1.33;1.07;;;13.40;99.90;;;;;;5063829;28;20497;-79
2023/09/25 07:16:55;;;;;;;1.50;1.00;;;13.50;99.90;;;;;;5060086;28;20467;-84
2023/09/25 07:19:22;;;;;;;1.60;1.10;;;13.50;99.90;;;;;;5062993;28;20476;-81
2023/09/25 07:21:50;;;;;;;1.43;1.33;;;13.50;99.90;;;;;;5060653;28;20451;-81
2023/09/25 07:24:17;;;;;;;1.83;1.73;;;13.50;99.90;;;;;;5062976;28;20513;-82
2023/09/25 07:26:54;;;;;;;2.03;1.57;;;13.60;99.90;;;;;;5065512;28;20458;-86
2023/09/25 07:29:24;;;;;;;1.30;1.20;;;13.80;99.90;;;;;;5060813;28;20461;-84
2023/09/25 07:31:54;;;;;;;2.53;1.20;;;14.00;99.90;;;;;;5066475;28;20437;-82
2023/09/25 07:34:23;;;;;;;1.27;1.17;;;14.00;99.90;;;;;;5067535;28;20472;-84
2023/09/25 07:37:04;;;;;;;1.33;1.00;;;14.30;99.90;;;;;;5063742;28;20484;-84
2023/09/25 07:39:34;;;;;;;2.83;1.27;;;14.40;99.90;;;;;;5067478;28;20489;-82
2023/09/25 07:42:03;;;;;;;2.03;1.20;;;14.30;99.90;;;;;;5066599;28;20466;-84
2023/09/25 07:44:42;;;;;;;1.30;1.20;;;14.30;99.90;;;;;;5067071;28;20469;-84
2023/09/25 07:47:12;;;;;;;2.13;1.13;;;14.40;99.90;;;;;;5047468;28;20455;-83
2023/09/25 07:49:40;;;;;;;2.70;2.30;;;14.40;99.90;;;;;;5053619;28;20802;-83
2023/09/25 07:52:15;;;;;;;1.30;1.20;;;14.60;99.90;;;;;;5051989;28;20573;-83
2023/09/25 07:54:44;;;;;;;2.20;1.57;;;14.50;99.90;;;;;;5061297;28;21007;-82
2023/09/25 07:57:13;;;;;;;5.00;1.50;;;14.40;99.90;;;;;;5067459;28;20445;-82
2023/09/25 07:59:40;;;;;;;1.70;1.60;;;14.50;99.90;;;;;;5063317;28;20453;-82
2023/09/25 08:02:08;;;;;;;1.37;1.20;;;14.70;99.90;;;;;;5061719;28;20991;-82
2023/09/25 08:04:35;;;;;;;2.10;1.20;;;15.00;99.90;;;;;;5065948;28;20581;-82
2023/09/25 08:07:03;;;;;;;3.33;1.30;;;15.20;99.90;;;;;;5067710;28;20954;-82
2023/09/25 08:09:31;;;;;;;3.23;1.10;;;15.20;99.90;;;;;;5066608;28;20866;-79
2023/09/25 08:11:59;;;;;;;2.63;1.67;;;15.40;99.90;;;;;;5065166;28;20909;-80
2023/09/25 08:14:26;;;;;;;2.70;1.50;;;15.30;99.90;;;;;;5061005;28;20463;-80
2023/09/25 08:16:53;;;;;;;1.50;1.40;;;15.50;99.90;;;;;;5064500;28;20543;-81
2023/09/25 08:19:22;;;;;;;3.23;1.50;;;15.50;99.90;;;;;;5063606;28;20488;-80
2023/09/25 08:21:51;;;;;;;4.33;1.23;;;15.60;99.90;;;;;;5068031;28;20460;-81
2023/09/25 08:24:18;;;;;;;2.00;1.90;;;15.50;99.90;;;;;;5065229;28;20888;-81
2023/09/25 08:26:47;;;;;;;1.67;1.03;;;15.50;99.90;;;;;;5060251;28;20450;-80
2023/09/25 08:29:15;;;;;;;1.80;1.60;;;15.40;99.90;;;;;;5056069;28;20457;-80
2023/09/25 08:31:43;;;;;;;2.10;1.90;;;15.40;99.90;;;;;;5064597;28;20450;-81
2023/09/25 08:34:10;;;;;;;1.37;1.20;;;15.30;99.90;;;;;;5060135;28;20520;-81
2023/09/25 08:36:37;;;;;;;2.47;2.00;;;15.40;99.90;;;;;;5063810;28;20553;-81
2023/09/25 08:39:05;;;;;;;2.03;1.83;;;15.60;99.90;;;;;;5062159;28;20499;-82
2023/09/25 08:41:32;;;;;;;1.30;1.20;;;15.80;99.90;;;;;;5065150;28;20524;-81
2023/09/25 08:44:01;;;;;;;1.93;1.50;;;16.10;99.90;;;;;;5068368;28;20499;-80
2023/09/25 08:46:29;;;;;;;1.83;0.90;;;16.20;99.90;;;;;;5066993;28;20477;-80
2023/09/25 08:48:59;;;;;;;2.83;2.60;;;16.40;99.90;;;;;;5060034;28;20464;-81
2023/09/25 08:51:26;;;;;;;1.90;1.60;;;16.40;99.90;;;;;;5065898;28;20515;-81
2023/09/25 08:53:53;;;;;;;4.20;1.50;;;16.30;99.90;;;;;;5058850;28;20517;-80
2023/09/25 08:56:21;;;;;;;5.43;3.33;;;16.60;99.90;;;;;;5065058;28;20492;-81
2023/09/25 08:58:50;;;;;;;1.50;1.40;;;16.70;99.90;;;;;;5059273;28;20514;-80
2023/09/25 09:01:20;;;;;;;3.73;1.70;;;16.50;99.90;;;;;;5053183;28;20578;-80
2023/09/25 09:03:47;;;;;;;2.70;1.40;;;16.70;99.90;;;;;;5064613;28;20495;-82
2023/09/25 09:06:14;;;;;;;1.50;1.40;;;16.60;99.90;;;;;;5060145;28;20514;-79
2023/09/25 09:08:43;;;;;;;2.20;2.00;;;16.80;99.90;;;;;;5055523;28;20436;-80
2023/09/25 09:11:11;;;;;;;1.83;1.70;;;16.80;99.90;;;;;;5061907;28;20942;-81
2023/09/25 09:13:44;;;;;;;3.10;1.93;;;17.00;99.60;;;;;;5061223;28;20566;-82
2023/09/25 09:16:15;;;;;;;2.10;1.80;;;17.20;98.30;;;;;;5060473;28;20480;-81
2023/09/25 09:18:45;;;;;;;2.53;2.30;;;17.20;97.00;;;;;;5062310;28;20535;-77
2023/09/25 09:21:23;;;;;;;1.30;1.20;;;17.20;96.30;;;;;;5059428;28;21252;-79
2023/09/25 09:23:50;;;;;;;2.73;1.60;;;17.40;97.30;;;;;;5064739;28;20657;-81
2023/09/25 09:26:17;;;;;;;4.00;1.27;;;17.40;98.60;;;;;;5061500;28;20464;-80
2023/09/25 09:28:46;;;;;;;1.07;0.97;;;17.60;97.30;;;;;;5063238;28;20498;-80
2023/09/25 09:31:17;;;;;;;1.60;1.43;;;17.50;96.00;;;;;;5059591;28;20481;-80
2023/09/25 09:33:46;;;;;;;3.10;1.70;;;17.60;95.70;;;;;;5057899;28;20946;-79
2023/09/25 09:36:14;;;;;;;4.20;2.33;;;17.40;95.60;;;;;;5063056;28;20487;-81
2023/09/25 09:38:42;;;;;;;2.33;2.13;;;17.50;95.60;;;;;;5063256;28;20456;-79
2023/09/25 09:41:10;;;;;;;2.23;1.60;;;17.40;96.60;;;;;;5060202;28;21033;-81
2023/09/25 09:43:37;;;;;;;2.63;2.43;;;17.50;94.80;;;;;;5062792;28;20935;-80
2023/09/25 09:46:06;;;;;;;1.73;1.57;;;17.50;95.60;;;;;;5064558;28;20977;-81
2023/09/25 09:48:33;;;;;;;2.13;1.60;;;17.50;94.90;;;;;;5060467;28;20444;-80
2023/09/25 09:51:03;;;;;;;2.37;1.83;;;17.60;95.70;;;;;;5063403;28;20562;-80
2023/09/25 09:53:35;;;;;;;1.97;1.87;;;17.60;96.00;;;;;;5061943;28;20584;-81
2023/09/25 09:56:02;;;;;;;1.27;1.17;;;17.70;95.60;;;;;;5064389;28;20483;-80
2023/09/25 09:58:30;;;;;;;3.10;1.83;;;18.00;93.80;;;;;;5060405;28;20505;-80
2023/09/25 10:00:57;;;;;;;2.83;1.93;;;17.90;94.70;;;;;;5057951;28;20460;-80
2023/09/25 10:03:28;;;;;;;5.37;2.67;;;17.70;93.10;;;;;;5058969;28;20517;-79
2023/09/25 10:05:56;;;;;;;2.03;1.83;;;17.70;93.70;;;;;;5053761;28;20539;-81
2023/09/25 10:08:25;;;;;;;2.83;1.20;;;17.90;93.80;;;;;;5066489;28;20440;-80
2023/09/25 10:10:52;;;;;;;2.50;1.60;;;18.00;93.40;;;;;;5061516;28;20535;-80
2023/09/25 10:13:22;;;;;;;2.43;2.03;;;18.00;93.10;;;;;;5060239;28;20474;-79
2023/09/25 10:15:55;;;;;;;2.97;1.20;;;18.10;92.90;;;;;;5063864;28;20591;-82
2023/09/25 10:18:22;;;;;;;1.53;1.30;;;18.10;95.00;;;;;;5062807;28;21095;-80
2023/09/25 10:20:49;;;;;;;3.67;1.50;;;18.40;95.00;;;;;;5064754;28;20444;-81
2023/09/25 10:23:22;;;;;;;3.17;2.40;;;18.00;92.50;;;;;;5061387;28;20455;-81
2023/09/25 10:25:53;;;;;;;2.23;2.00;;;18.00;92.60;;;;;;5061494;28;20547;-79
2023/09/25 10:28:26;;;;;;;3.47;1.47;;;17.90;93.80;;;;;;5064357;28;20462;-80
2023/09/25 10:30:56;;;;;;;2.97;1.50;;;17.60;93.40;;;;;;5062356;28;20471;-81
2023/09/25 10:33:23;;;;;;;2.80;1.30;;;17.90;94.80;;;;;;5057079;28;20471;-80
2023/09/25 10:35:52;;;;;;;2.93;2.03;;;18.00;94.60;;;;;;5056692;28;20501;-80
2023/09/25 10:38:22;;;;;;;2.80;1.50;;;18.20;93.70;;;;;;5063044;28;20455;-79
2023/09/25 10:40:51;;;;;;;2.30;2.10;;;18.30;93.30;;;;;;5064042;28;20454;-79
2023/09/25 10:43:20;;;;;;;5.90;1.87;;;18.40;94.30;;;;;;5051499;28;20470;-79
2023/09/25 10:45:48;;;;;;;4.90;1.80;;;18.50;93.50;;;;;;5068607;28;20464;-79
2023/09/25 10:48:15;;;;;;;3.00;1.43;;;18.40;94.20;;;;;;5062939;28;21137;-79
2023/09/25 10:50:43;;;;;;;1.77;1.67;;;18.30;93.40;;;;;;5059741;28;20506;-81
2023/09/25 10:53:11;;;;;;;3.33;1.73;;;18.40;94.00;;;;;;5058796;28;20984;-80
2023/09/25 10:55:39;;;;;;;2.10;1.93;;;18.50;93.50;;;;;;5061849;28;20483;-81
2023/09/25 10:58:09;;;;;;;1.30;1.20;;;18.60;93.60;;;;;;5064000;28;20492;-81
2023/09/25 11:00:39;;;;;;;2.73;2.37;;;18.90;93.50;;;;;;5063089;28;20962;-81
2023/09/25 11:03:07;;;;;;;1.37;1.13;;;18.60;92.00;;;;;;5055047;28;20538;-81
2023/09/25 11:05:36;;;;;;;1.50;1.40;;;18.70;92.60;;;;;;5058998;28;20459;-81
2023/09/25 11:08:04;;;;;;;3.93;1.87;;;19.10;93.70;;;;;;5060855;28;21152;-81
2023/09/25 11:10:34;;;;;;;5.10;2.37;;;19.20;91.20;;;;;;5061394;28;20535;-81
2023/09/25 11:13:02;;;;;;;1.93;1.47;;;19.00;91.20;;;;;;5051345;28;20469;-80
2023/09/25 11:15:30;;;;;;;2.00;1.77;;;19.00;91.10;;;;;;5057724;28;20505;-80
2023/09/25 11:17:58;;;;;;;2.07;1.87;;;19.00;93.30;;;;;;5057110;28;20486;-81
2023/09/25 11:20:30;;;;;;;1.50;1.40;;;19.00;91.70;;;;;;5056475;28;20501;-81
2023/09/25 11:23:05;;;;;;;1.93;1.60;;;19.10;91.40;;;;;;5065689;28;20881;-83
2023/09/25 11:25:38;;;;;;;2.43;1.40;;;19.10;91.70;;;;;;5065808;28;20554;-81
2023/09/25 11:28:07;;;;;;;2.43;1.10;;;19.20;92.70;;;;;;5065904;28;20540;-83
2023/09/25 11:30:35;;;;;;;1.57;1.47;;;19.30;92.10;;;;;;5066261;28;20522;-80
2023/09/25 11:33:10;;;;;;;1.53;1.10;;;19.30;91.70;;;;;;5065815;28;20527;-81
2023/09/25 11:35:38;;;;;;;1.33;1.20;;;19.30;92.10;;;;;;5067833;28;21142;-81
2023/09/25 11:38:17;;;;;;;3.00;2.57;;;19.50;91.40;;;;;;5065048;28;20487;-81
2023/09/25 11:40:45;;;;;;;2.00;1.37;;;19.50;90.30;;;;;;5058337;28;20466;-81
2023/09/25 11:43:12;;;;;;;2.60;1.50;;;19.40;91.00;;;;;;5060920;28;20844;-81
2023/09/25 11:45:41;;;;;;;2.90;1.97;;;19.40;91.00;;;;;;5058169;28;20991;-82
2023/09/25 11:48:10;;;;;;;4.50;2.00;;;19.30;90.80;;;;;;5057722;28;20523;-81
2023/09/25 11:50:37;;;;;;;5.00;2.97;;;19.40;92.20;;;;;;5061783;28;20959;-82
2023/09/25 11:53:06;;;;;;;2.13;2.00;;;19.40;92.50;;;;;;5066670;28;20450;-80
2023/09/25 11:55:33;;;;;;;1.30;1.20;;;19.40;91.80;;;;;;5066136;28;20521;-80
2023/09/25 11:58:01;;;;;;;2.67;1.10;;;19.60;92.20;;;;;;5058769;28;20480;-80
2023/09/25 12:00:28;;;;;;;2.00;1.87;;;19.70;93.00;;;;;;5066371;28;21092;-81
2023/09/25 12:02:56;;;;;;;2.30;2.00;;;19.70;91.40;;;;;;5057677;28;20522;-81
2023/09/25 12:05:24;;;;;;;1.70;1.60;;;19.60;91.60;;;;;;5057654;28;20463;-83
2023/09/25 12:07:51;;;;;;;2.80;2.13;;;19.70;91.80;;;;;;5063000;28;20531;-82
2023/09/25 12:10:19;;;;;;;7.30;1.73;;;19.60;90.20;;;;;;5062182;28;20477;-81
2023/09/25 12:12:48;;;;;;;2.83;1.70;;;19.60;91.20;;;;;;5065531;28;20838;-80
2023/09/25 12:15:17;;;;;;;1.73;1.00;;;19.60;91.00;;;;;;5067006;28;20460;-81
2023/09/25 12:17:44;;;;;;;3.30;1.20;;;19.60;90.50;;;;;;5056585;28;20535;-80
2023/09/25 12:20:14;;;;;;;1.37;1.10;;;19.50;89.40;;;;;;5061492;28;20449;-79
2023/09/25 12:22:45;;;;;;;2.07;1.33;;;19.60;90.50;;;;;;5063227;28;20469;-81
2023/09/25 12:25:13;;;;;;;2.90;1.53;;;19.70;91.60;;;;;;5058218;28;20459;-80
2023/09/25 12:27:42;;;;;;;1.87;1.37;;;19.90;92.90;;;;;;5063320;28;20516;-82
2023/09/25 12:30:11;;;;;;;1.40;1.30;;;19.70;88.30;;;;;;5063539;28;20450;-82
2023/09/25 12:32:38;;;;;;;1.23;1.10;;;19.70;91.30;;;;;;5061971;28;20459;-80
2023/09/25 12:35:06;;;;;;;1.20;1.00;;;19.70;92.00;;;;;;5061072;28;20886;-80
2023/09/25 12:37:35;;;;;;;3.60;2.30;;;20.00;90.00;;;;;;5063836;28;20477;-80
2023/09/25 12:40:02;;;;;;;1.40;0.93;;;20.00;90.10;;;;;;5057577;28;20902;-80
2023/09/25 12:42:29;;;;;;;1.30;1.10;;;20.10;90.40;;;;;;5063196;28;20455;-82
2023/09/25 12:44:56;;;;;;;1.83;1.27;;;20.00;89.30;;;;;;5058338;28;20471;-81
2023/09/25 12:47:26;;;;;;;2.33;1.27;;;20.10;92.10;;;;;;5071075;28;20477;-79
2023/09/25 12:49:54;;;;;;;4.93;1.60;;;20.20;90.60;;;;;;5066912;28;20448;-81
2023/09/25 12:52:23;;;;;;;1.67;1.50;;;20.00;90.90;;;;;;5065356;28;20498;-81